Time;durP1;ratioP1;P1;durP2;ratioP2;P2;SDS_P1;SDS_P2;PMS_P1;PMS_P2;Temp;Humidity;BMP_temperature;BMP_pressure;BME280_temperature;BME280_humidity;BME280_pressure;Samples;Min_cycle;Max_cycle;Signal;HPM_P1;HPM_P2
2022/02/27 00:01:34;;;;;;;11.63;4.75;;;4.30;54.30;;;;;;5060500;28;20063;-74
2022/02/27 00:04:00;;;;;;;13.57;4.45;;;4.20;54.30;;;;;;5068198;28;20051;-79
2022/02/27 00:06:26;;;;;;;8.05;3.47;;;4.20;54.50;;;;;;5054982;28;20079;-75
2022/02/27 00:08:52;;;;;;;11.82;4.00;;;4.20;54.60;;;;;;5057888;28;20029;-75
2022/02/27 00:11:18;;;;;;;;;;;4.20;54.70;;;;;;5073645;28;20033;-75
2022/02/27 00:13:44;;;;;;;10.27;4.35;;;4.20;54.50;;;;;;5067485;28;19932;-77
2022/02/27 00:16:10;;;;;;;9.07;3.72;;;4.10;54.70;;;;;;5074979;28;20037;-75
2022/02/27 00:18:36;;;;;;;7.85;3.40;;;4.10;55.00;;;;;;5049122;28;20037;-78
2022/02/27 00:21:02;;;;;;;9.35;3.40;;;4.10;55.20;;;;;;5063235;28;20028;-78
2022/02/27 00:23:28;;;;;;;8.43;4.22;;;4.00;55.10;;;;;;5069116;28;20042;-75
2022/02/27 00:25:55;;;;;;;10.63;4.10;;;3.90;55.20;;;;;;5041902;28;20462;-78
2022/02/27 00:28:21;;;;;;;7.53;3.58;;;4.00;55.40;;;;;;5068209;28;20398;-78
2022/02/27 00:30:47;;;;;;;7.60;3.08;;;3.90;55.50;;;;;;5068786;28;20043;-75
2022/02/27 00:33:13;;;;;;;8.13;3.90;;;3.90;55.20;;;;;;5071762;28;20456;-75
2022/02/27 00:35:42;;;;;;;11.48;4.60;;;3.90;55.80;;;;;;5079321;28;20420;-75
2022/02/27 00:38:09;;;;;;;13.02;5.95;;;3.80;55.80;;;;;;5065762;28;20127;-75
2022/02/27 00:40:35;;;;;;;13.15;4.95;;;3.80;55.50;;;;;;5053618;28;20044;-75
2022/02/27 00:43:01;;;;;;;7.78;4.13;;;3.80;56.00;;;;;;5037380;28;20071;-78
2022/02/27 00:45:27;;;;;;;15.27;5.82;;;3.80;56.00;;;;;;5052367;28;20044;-78
2022/02/27 00:47:54;;;;;;;13.15;4.72;;;3.80;56.00;;;;;;5061900;28;20036;-78
2022/02/27 00:50:20;;;;;;;12.10;5.68;;;3.80;56.20;;;;;;5061748;28;20043;-79
2022/02/27 00:52:46;;;;;;;10.13;3.92;;;3.80;56.10;;;;;;5055576;28;20128;-78
2022/02/27 00:55:12;;;;;;;10.95;5.43;;;3.80;56.00;;;;;;5070161;28;20040;-78
2022/02/27 00:57:38;;;;;;;11.98;5.28;;;3.90;56.10;;;;;;5068215;28;20106;-75
2022/02/27 01:00:07;;;;;;;8.85;4.38;;;3.90;56.10;;;;;;5069294;28;20036;-75
2022/02/27 01:02:33;;;;;;;9.20;3.65;;;3.90;56.20;;;;;;5073548;28;20035;-76
2022/02/27 01:04:59;;;;;;;;;;;3.90;56.20;;;;;;5067796;28;20147;-75
2022/02/27 01:07:26;;;;;;;9.75;4.40;;;4.00;55.80;;;;;;5056852;28;19921;-78
2022/02/27 01:09:52;;;;;;;10.07;5.10;;;4.00;56.00;;;;;;5055206;28;20037;-77
2022/02/27 01:12:18;;;;;;;14.43;4.80;;;4.00;56.00;;;;;;5061165;28;20094;-75
2022/02/27 01:14:46;;;;;;;11.45;5.15;;;4.00;56.00;;;;;;5058336;28;20437;-77
2022/02/27 01:17:13;;;;;;;10.10;5.40;;;4.00;55.90;;;;;;5053990;28;20123;-75
2022/02/27 01:19:40;;;;;;;10.05;4.47;;;4.00;55.90;;;;;;5057034;28;20033;-78
2022/02/27 01:22:06;;;;;;;8.93;4.20;;;4.00;56.10;;;;;;5064916;28;20127;-75
2022/02/27 01:24:32;;;;;;;;;;;4.00;55.70;;;;;;5051699;28;20087;-75
2022/02/27 01:26:58;;;;;;;11.98;4.15;;;4.00;55.90;;;;;;5052846;28;20450;-75
2022/02/27 01:29:24;;;;;;;8.00;3.97;;;4.00;56.20;;;;;;5051775;28;20090;-77
2022/02/27 01:31:50;;;;;;;10.18;5.47;;;4.00;56.30;;;;;;5053150;28;20064;-77
2022/02/27 01:34:17;;;;;;;9.95;4.25;;;3.90;56.90;;;;;;5067674;28;20478;-75
2022/02/27 01:36:43;;;;;;;11.35;4.80;;;3.90;56.50;;;;;;5084840;28;20040;-78
2022/02/27 01:39:09;;;;;;;;;;;3.90;56.00;;;;;;5053963;28;20149;-74
2022/02/27 01:41:35;;;;;;;11.23;3.83;;;3.90;56.60;;;;;;5070163;28;19924;-78
2022/02/27 01:44:01;;;;;;;13.52;6.22;;;3.80;56.70;;;;;;5062855;28;20047;-75
2022/02/27 01:46:27;;;;;;;10.32;5.22;;;3.80;56.90;;;;;;5055675;28;20052;-75
2022/02/27 01:48:53;;;;;;;17.83;6.32;;;3.70;57.10;;;;;;5051357;28;20123;-75
2022/02/27 01:51:20;;;;;;;12.70;5.07;;;3.70;57.20;;;;;;5063680;28;20055;-78
2022/02/27 01:53:47;;;;;;;11.35;5.00;;;3.60;57.10;;;;;;5058450;28;20039;-77
2022/02/27 01:56:13;;;;;;;12.95;6.18;;;3.60;56.80;;;;;;5051147;28;20060;-75
2022/02/27 01:58:40;;;;;;;11.75;4.65;;;3.60;57.40;;;;;;5065753;28;20036;-78
2022/02/27 02:01:06;;;;;;;9.93;4.40;;;3.50;57.60;;;;;;5051460;28;20061;-75
2022/02/27 02:03:32;;;;;;;10.45;5.38;;;3.40;57.60;;;;;;5052620;28;20041;-76
2022/02/27 02:05:59;;;;;;;11.85;4.63;;;3.40;57.80;;;;;;5042422;28;20560;-75
2022/02/27 02:08:25;;;;;;;10.80;5.57;;;3.40;57.90;;;;;;5064021;28;20033;-78
2022/02/27 02:10:51;;;;;;;8.77;4.15;;;3.40;57.90;;;;;;5052701;28;20044;-75
2022/02/27 02:13:17;;;;;;;9.25;4.50;;;3.40;58.00;;;;;;5057060;28;20436;-78
2022/02/27 02:15:43;;;;;;;10.23;5.03;;;3.30;58.10;;;;;;5065477;28;20423;-74
2022/02/27 02:18:10;;;;;;;9.15;4.78;;;3.30;58.10;;;;;;5051457;28;20029;-74
2022/02/27 02:20:37;;;;;;;12.38;5.68;;;3.30;57.50;;;;;;5051694;28;20025;-75
2022/02/27 02:23:04;;;;;;;10.05;4.47;;;3.30;58.30;;;;;;5068128;28;20093;-78
2022/02/27 02:25:30;;;;;;;11.20;5.18;;;3.20;58.20;;;;;;5048535;28;20041;-78
2022/02/27 02:27:57;;;;;;;10.40;4.70;;;3.20;58.30;;;;;;5050454;28;20075;-75
2022/02/27 02:30:23;;;;;;;13.20;5.70;;;3.20;58.20;;;;;;5067996;28;20035;-77
2022/02/27 02:33:09;;;;;;;11.13;4.85;;;3.20;58.40;;;;;;5081139;28;20557;-75
2022/02/27 02:35:35;;;;;;;9.63;5.10;;;3.20;58.60;;;;;;5068482;28;20044;-77
2022/02/27 02:38:01;;;;;;;13.48;5.88;;;3.10;58.50;;;;;;5082994;28;20040;-78
2022/02/27 02:40:27;;;;;;;12.27;5.28;;;3.10;58.50;;;;;;5063780;28;20041;-75
2022/02/27 02:42:54;;;;;;;9.32;4.47;;;3.10;58.60;;;;;;5054421;28;20043;-77
2022/02/27 02:45:20;;;;;;;;;;;3.10;58.10;;;;;;5050728;28;20051;-75
2022/02/27 02:47:48;;;;;;;12.82;4.82;;;3.10;58.50;;;;;;5045893;28;19966;-77
2022/02/27 02:50:15;;;;;;;8.85;4.32;;;3.00;58.40;;;;;;5038794;28;20040;-75
2022/02/27 02:52:42;;;;;;;10.43;4.93;;;3.00;58.00;;;;;;5056209;28;20069;-75
2022/02/27 02:55:12;;;;;;;8.38;4.50;;;3.00;58.10;;;;;;5051735;28;20478;-75
2022/02/27 02:57:39;;;;;;;10.75;5.40;;;3.10;58.70;;;;;;5044337;28;20036;-75
2022/02/27 03:00:10;;;;;;;;;;;3.00;58.60;;;;;;5059649;28;20043;-75
2022/02/27 03:02:38;;;;;;;9.38;3.90;;;3.00;58.40;;;;;;5058572;28;19916;-77
2022/02/27 03:05:06;;;;;;;9.38;4.18;;;3.00;58.60;;;;;;5059966;28;20056;-78
2022/02/27 03:07:52;;;;;;;11.65;4.13;;;3.00;58.70;;;;;;5033929;28;20490;-77
2022/02/27 03:10:18;;;;;;;10.23;4.45;;;3.00;59.10;;;;;;5051063;28;20402;-75
2022/02/27 03:12:44;;;;;;;8.00;3.28;;;2.90;58.90;;;;;;5050318;28;20509;-77
2022/02/27 03:15:10;;;;;;;10.18;4.28;;;2.90;59.00;;;;;;5051073;28;20067;-78
2022/02/27 03:17:36;;;;;;;8.10;3.83;;;2.90;59.10;;;;;;5051347;28;20021;-75
2022/02/27 03:20:04;;;;;;;12.35;4.78;;;2.90;59.10;;;;;;5050165;28;20394;-75
2022/02/27 03:22:30;;;;;;;9.25;3.97;;;2.90;58.90;;;;;;5050235;28;20095;-77
2022/02/27 03:24:57;;;;;;;8.95;3.83;;;2.90;59.10;;;;;;5047786;28;20418;-77
2022/02/27 03:27:23;;;;;;;10.68;4.15;;;2.80;59.00;;;;;;5050081;28;20413;-77
2022/02/27 03:29:49;;;;;;;8.80;4.03;;;2.80;59.10;;;;;;5049875;28;20433;-75
2022/02/27 03:32:15;;;;;;;9.60;4.20;;;2.80;59.10;;;;;;5065702;28;20714;-78
2022/02/27 03:34:41;;;;;;;9.75;3.90;;;2.80;59.20;;;;;;5050258;28;20044;-75
2022/02/27 03:37:07;;;;;;;9.88;3.58;;;2.80;59.30;;;;;;5066136;28;20043;-75
2022/02/27 03:39:33;;;;;;;10.48;4.22;;;2.80;59.20;;;;;;5052055;28;20120;-74
2022/02/27 03:41:59;;;;;;;9.30;4.03;;;2.80;59.20;;;;;;5065457;28;20074;-75
2022/02/27 03:44:25;;;;;;;11.57;4.63;;;2.80;59.20;;;;;;5052413;28;20489;-77
2022/02/27 03:46:51;;;;;;;7.72;3.50;;;2.80;59.30;;;;;;5050817;28;20047;-77
2022/02/27 03:49:17;;;;;;;12.43;4.10;;;2.80;59.20;;;;;;5051414;28;20041;-77
2022/02/27 03:51:43;;;;;;;10.38;4.32;;;2.80;59.30;;;;;;5050295;28;20037;-75
2022/02/27 03:54:10;;;;;;;8.75;4.00;;;2.70;59.40;;;;;;5064529;28;20025;-75
2022/02/27 03:56:36;;;;;;;9.13;4.85;;;2.70;59.40;;;;;;5051499;28;20029;-75
2022/02/27 03:59:02;;;;;;;9.98;4.45;;;2.70;59.40;;;;;;5052105;28;20401;-77
2022/02/27 04:01:28;;;;;;;13.50;4.90;;;2.70;59.30;;;;;;5054674;28;20037;-78
2022/02/27 04:03:54;;;;;;;9.73;4.22;;;2.70;59.20;;;;;;5052553;28;20041;-75
2022/02/27 04:06:20;;;;;;;8.40;4.00;;;2.80;59.10;;;;;;5053053;28;20451;-77
2022/02/27 04:08:46;;;;;;;10.48;4.68;;;2.80;59.00;;;;;;5055715;28;20047;-77
2022/02/27 04:11:12;;;;;;;10.10;4.00;;;2.80;58.30;;;;;;5037535;28;20379;-75
2022/02/27 04:13:38;;;;;;;10.57;4.35;;;2.80;58.80;;;;;;5033810;28;20088;-75
2022/02/27 04:16:05;;;;;;;9.32;3.80;;;2.80;58.80;;;;;;5067451;28;20051;-77
2022/02/27 04:18:31;;;;;;;;;;;2.90;58.80;;;;;;5055330;28;20075;-77
2022/02/27 04:20:57;;;;;;;9.68;3.63;;;2.90;58.60;;;;;;5056287;28;19916;-77
2022/02/27 04:23:23;;;;;;;11.68;4.18;;;2.90;58.50;;;;;;5055630;28;20037;-77
2022/02/27 04:25:49;;;;;;;11.50;4.50;;;2.90;58.40;;;;;;5053327;28;20664;-78
2022/02/27 04:28:15;;;;;;;10.20;3.60;;;2.90;58.30;;;;;;5052129;28;20037;-75
2022/02/27 04:30:41;;;;;;;7.95;4.38;;;3.00;58.20;;;;;;5057109;28;20057;-77
2022/02/27 04:33:07;;;;;;;9.73;4.22;;;3.00;57.60;;;;;;5052329;28;20032;-76
2022/02/27 04:35:33;;;;;;;9.80;4.10;;;3.00;58.10;;;;;;5048961;28;20064;-75
2022/02/27 04:38:00;;;;;;;14.50;5.05;;;3.00;58.10;;;;;;5059453;28;20081;-78
2022/02/27 04:40:26;;;;;;;9.38;4.32;;;3.10;58.10;;;;;;5052772;28;20391;-77
2022/02/27 04:42:52;;;;;;;9.88;4.13;;;3.10;58.00;;;;;;5054711;28;20110;-75
2022/02/27 04:45:18;;;;;;;10.75;4.63;;;3.10;57.90;;;;;;5053989;28;20067;-75
2022/02/27 04:47:44;;;;;;;9.00;3.92;;;3.10;57.70;;;;;;5059715;28;20478;-77
2022/02/27 04:50:10;;;;;;;10.02;4.70;;;3.10;57.60;;;;;;5054121;28;20052;-74
2022/02/27 04:52:36;;;;;;;12.13;4.55;;;3.10;57.60;;;;;;5053005;28;20040;-78
2022/02/27 04:55:03;;;;;;;;;;;3.10;57.00;;;;;;5054501;28;20047;-74
2022/02/27 04:57:31;;;;;;;10.30;4.85;;;3.10;57.40;;;;;;5055453;28;20007;-78
2022/02/27 04:59:58;;;;;;;14.32;5.00;;;3.10;57.40;;;;;;5068059;28;20486;-75
2022/02/27 05:02:24;;;;;;;;;;;3.10;57.40;;;;;;5053686;28;20028;-78
2022/02/27 05:04:50;;;;;;;11.02;4.68;;;3.10;57.30;;;;;;5051259;28;19920;-77
2022/02/27 05:07:16;;;;;;;10.32;4.47;;;3.10;57.30;;;;;;5068667;28;20056;-76
2022/02/27 05:09:42;;;;;;;10.20;4.60;;;3.10;57.30;;;;;;5052830;28;20033;-78
2022/02/27 05:12:08;;;;;;;12.55;5.60;;;3.10;57.30;;;;;;5053688;28;20044;-77
2022/02/27 05:14:34;;;;;;;;;;;3.10;57.30;;;;;;5054739;28;20509;-77
2022/02/27 05:17:00;;;;;;;11.80;4.40;;;3.00;57.20;;;;;;5053525;28;19921;-75
2022/02/27 05:19:26;;;;;;;12.35;4.95;;;3.00;57.20;;;;;;5066166;28;20494;-75
2022/02/27 05:21:53;;;;;;;12.05;4.75;;;3.00;57.20;;;;;;5043189;28;20041;-78
2022/02/27 05:24:19;;;;;;;13.75;5.15;;;3.00;57.10;;;;;;5053739;28;20040;-77
2022/02/27 05:26:45;;;;;;;11.77;4.57;;;3.00;57.90;;;;;;5053857;28;20031;-78
2022/02/27 05:29:11;;;;;;;10.57;4.45;;;3.00;57.20;;;;;;5053934;28;20040;-78
2022/02/27 05:31:40;;;;;;;10.82;5.10;;;3.00;57.10;;;;;;5053056;28;20037;-75
2022/02/27 05:34:07;;;;;;;14.35;6.00;;;3.00;56.50;;;;;;5049600;28;20099;-77
2022/02/27 05:36:34;;;;;;;30.85;11.60;;;3.00;56.50;;;;;;5051840;28;20130;-75
2022/02/27 05:39:01;;;;;;;32.03;11.50;;;3.00;56.40;;;;;;5052096;28;20472;-79
2022/02/27 05:41:27;;;;;;;14.40;7.22;;;3.00;56.30;;;;;;5051223;28;20155;-75
2022/02/27 05:43:53;;;;;;;19.98;6.68;;;3.00;56.70;;;;;;5051877;28;20037;-78
2022/02/27 05:46:19;;;;;;;17.63;7.88;;;3.00;56.60;;;;;;5035954;28;20336;-75
2022/02/27 05:48:45;;;;;;;19.25;8.73;;;3.10;56.60;;;;;;5053180;28;20791;-79
2022/02/27 05:51:11;;;;;;;21.23;9.15;;;3.10;56.60;;;;;;5052939;28;20033;-78
2022/02/27 05:53:38;;;;;;;18.67;6.22;;;3.10;55.90;;;;;;5053087;28;20059;-78
2022/02/27 05:56:04;;;;;;;15.95;7.20;;;3.10;56.40;;;;;;5085885;28;20033;-75
2022/02/27 06:01:17;;;;;;;15.20;7.30;;;3.10;56.30;;;;;;5051433;28;20045;-78
2022/02/27 06:03:43;;;;;;;29.48;12.32;;;3.10;55.80;;;;;;5051254;28;20406;-74
2022/02/27 06:06:09;;;;;;;14.48;7.25;;;3.10;56.20;;;;;;5052371;28;20102;-78
2022/02/27 06:08:35;;;;;;;21.58;10.15;;;3.10;56.10;;;;;;5052947;28;20123;-78
2022/02/27 06:11:01;;;;;;;;;;;3.10;56.10;;;;;;5067969;28;20375;-75
2022/02/27 06:13:28;;;;;;;13.48;5.07;;;3.10;56.10;;;;;;5052753;28;19970;-75
2022/02/27 06:15:54;;;;;;;18.80;6.38;;;3.10;55.50;;;;;;5050104;28;20047;-75
2022/02/27 06:18:20;;;;;;;11.35;4.70;;;3.10;55.40;;;;;;5050654;28;20043;-78
2022/02/27 06:20:47;;;;;;;12.90;5.70;;;3.10;55.90;;;;;;5056610;28;20401;-79
2022/02/27 06:23:13;;;;;;;12.45;5.80;;;3.20;55.80;;;;;;5056971;28;20029;-79
2022/02/27 06:25:39;;;;;;;10.77;5.45;;;3.20;55.70;;;;;;5052300;28;20029;-75
2022/02/27 06:28:05;;;;;;;11.18;5.22;;;3.20;55.70;;;;;;5051416;28;20116;-75
2022/02/27 06:30:31;;;;;;;;;;;3.30;55.60;;;;;;5058106;28;20036;-75
2022/02/27 06:32:57;;;;;;;9.52;4.68;;;3.30;54.90;;;;;;5063534;28;20008;-75
2022/02/27 06:35:25;;;;;;;13.93;4.80;;;3.30;55.30;;;;;;5051403;28;20525;-75
2022/02/27 06:37:55;;;;;;;14.57;5.63;;;3.30;55.30;;;;;;5039208;28;20534;-78
2022/02/27 06:40:21;;;;;;;13.77;5.35;;;3.30;55.20;;;;;;5065098;28;20482;-74
2022/02/27 06:42:48;;;;;;;10.00;4.28;;;3.30;54.70;;;;;;5049415;28;20538;-74
2022/02/27 06:45:17;;;;;;;15.90;5.20;;;3.30;55.10;;;;;;5035257;28;20040;-77
2022/02/27 06:47:44;;;;;;;10.18;4.88;;;3.40;55.30;;;;;;5051741;28;20025;-78
2022/02/27 06:50:12;;;;;;;13.55;5.10;;;3.40;55.00;;;;;;5049617;28;20051;-78
2022/02/27 06:52:39;;;;;;;10.63;5.30;;;3.40;55.00;;;;;;5049973;28;20033;-75
2022/02/27 06:55:06;;;;;;;14.82;6.32;;;3.40;54.90;;;;;;5051760;28;20364;-79
2022/02/27 06:57:33;;;;;;;13.10;5.28;;;3.40;54.80;;;;;;5050988;28;20033;-77
2022/02/27 06:59:59;;;;;;;12.32;5.60;;;3.50;54.80;;;;;;5047462;28;20059;-75
2022/02/27 07:02:25;;;;;;;13.13;6.85;;;3.50;54.80;;;;;;5049760;28;20037;-79
2022/02/27 07:04:51;;;;;;;;;;;3.50;54.60;;;;;;5052077;28;20057;-75
2022/02/27 07:07:17;;;;;;;11.77;5.53;;;3.60;54.60;;;;;;5044716;28;19921;-75
2022/02/27 07:09:43;;;;;;;14.55;6.55;;;3.60;54.20;;;;;;5052042;28;20121;-76
2022/02/27 07:12:09;;;;;;;11.65;5.22;;;3.70;54.20;;;;;;5050434;28;20504;-78
2022/02/27 07:14:36;;;;;;;10.00;5.80;;;3.80;54.10;;;;;;5064362;28;20198;-74
2022/02/27 07:17:02;;;;;;;10.27;4.72;;;3.80;53.90;;;;;;5050197;28;20045;-75
2022/02/27 07:19:28;;;;;;;;;;;3.90;53.80;;;;;;5051229;28;20126;-78
2022/02/27 07:21:54;;;;;;;15.57;6.18;;;3.90;53.80;;;;;;5053433;28;19920;-75
2022/02/27 07:24:20;;;;;;;13.88;6.10;;;4.00;53.40;;;;;;5049257;28;20037;-77
2022/02/27 07:26:46;;;;;;;13.38;5.88;;;4.00;53.30;;;;;;5051662;28;20585;-74
2022/02/27 07:29:12;;;;;;;13.73;6.00;;;4.10;53.30;;;;;;5053243;28;20061;-75
2022/02/27 07:31:38;;;;;;;16.17;6.20;;;4.20;53.10;;;;;;5051746;28;20115;-79
2022/02/27 07:34:04;;;;;;;15.18;7.55;;;4.30;53.10;;;;;;5036095;28;20040;-75
2022/02/27 07:36:30;;;;;;;15.00;5.40;;;4.30;53.10;;;;;;5054399;28;20037;-77
2022/02/27 07:38:57;;;;;;;14.40;5.80;;;4.40;52.80;;;;;;5072330;28;20653;-78
2022/02/27 07:41:23;;;;;;;17.23;7.40;;;4.40;52.50;;;;;;5073901;28;20043;-79
2022/02/27 07:43:49;;;;;;;15.00;6.75;;;4.40;52.40;;;;;;5054620;28;20065;-78
2022/02/27 07:46:15;;;;;;;14.60;6.25;;;4.50;52.60;;;;;;5053592;28;20041;-74
2022/02/27 07:48:42;;;;;;;15.38;7.50;;;4.50;52.60;;;;;;5068769;28;20135;-76
2022/02/27 07:51:08;;;;;;;11.00;5.57;;;4.50;52.60;;;;;;5053188;28;20040;-78
2022/02/27 07:53:34;;;;;;;14.05;6.47;;;4.50;53.20;;;;;;5054265;28;20029;-79
2022/02/27 07:56:00;;;;;;;12.05;6.43;;;4.60;52.20;;;;;;5059151;28;20049;-75
2022/02/27 07:58:26;;;;;;;8.45;3.72;;;4.60;52.20;;;;;;5053214;28;20048;-75
2022/02/27 08:00:52;;;;;;;14.23;6.20;;;4.70;52.00;;;;;;5066505;28;20425;-75
2022/02/27 08:03:18;;;;;;;16.25;8.30;;;4.70;51.80;;;;;;5053861;28;20091;-75
2022/02/27 08:05:44;;;;;;;24.48;8.45;;;4.80;51.80;;;;;;5054151;28;20068;-75
2022/02/27 08:08:10;;;;;;;27.02;11.32;;;4.90;51.80;;;;;;5067722;28;20044;-79
2022/02/27 08:10:37;;;;;;;15.35;8.10;;;4.90;51.60;;;;;;5057414;28;20035;-75
2022/02/27 08:13:03;;;;;;;16.27;7.03;;;4.90;51.40;;;;;;5054045;28;20037;-78
2022/02/27 08:15:29;;;;;;;15.80;6.25;;;4.90;51.20;;;;;;5056088;28;20390;-76
2022/02/27 08:17:55;;;;;;;15.25;6.78;;;5.00;51.20;;;;;;5053789;28;20079;-78
2022/02/27 08:20:21;;;;;;;11.55;5.97;;;5.00;51.00;;;;;;5054784;28;20645;-79
2022/02/27 08:22:47;;;;;;;;;;;5.00;50.80;;;;;;5052108;28;20120;-79
2022/02/27 08:25:15;;;;;;;13.60;6.32;;;5.00;51.00;;;;;;5053005;28;19927;-79
2022/02/27 08:27:42;;;;;;;13.25;6.07;;;5.00;50.80;;;;;;5053817;28;20029;-79
2022/02/27 08:30:09;;;;;;;12.68;6.20;;;5.00;50.30;;;;;;5050816;28;20037;-78
2022/02/27 08:32:35;;;;;;;16.73;6.03;;;5.10;50.80;;;;;;5054559;28;20037;-74
2022/02/27 08:35:02;;;;;;;12.15;6.50;;;5.00;50.80;;;;;;5054546;28;20559;-75
2022/02/27 08:37:28;;;;;;;15.75;7.45;;;5.00;50.40;;;;;;5056202;28;20033;-75
2022/02/27 08:39:54;;;;;;;12.52;5.75;;;5.00;50.80;;;;;;5054475;28;20041;-79
2022/02/27 08:42:21;;;;;;;15.70;6.15;;;5.00;51.30;;;;;;5051801;28;20044;-80
2022/02/27 08:44:47;;;;;;;12.10;6.35;;;4.90;50.90;;;;;;5051935;28;20033;-75
2022/02/27 08:47:13;;;;;;;16.70;7.35;;;4.90;51.70;;;;;;5052423;28;20033;-79
2022/02/27 08:49:39;;;;;;;15.57;7.38;;;4.90;51.50;;;;;;5052004;28;20044;-78
2022/02/27 08:52:05;;;;;;;13.25;6.65;;;4.90;51.60;;;;;;5053548;28;20037;-80
2022/02/27 08:54:32;;;;;;;;;;;5.00;50.80;;;;;;5053876;28;20033;-77
2022/02/27 08:56:58;;;;;;;17.23;7.35;;;5.10;51.30;;;;;;5051691;28;19921;-75
2022/02/27 08:59:26;;;;;;;13.85;7.03;;;5.20;51.00;;;;;;5043977;28;20167;-79
2022/02/27 09:01:52;;;;;;;15.20;6.15;;;5.20;50.90;;;;;;5064798;28;20749;-78
2022/02/27 09:04:18;;;;;;;17.92;7.68;;;5.10;51.00;;;;;;5051483;28;20041;-75
2022/02/27 09:06:44;;;;;;;13.00;6.32;;;5.10;51.30;;;;;;5057491;28;20398;-75
2022/02/27 09:09:10;;;;;;;14.73;6.40;;;5.00;51.10;;;;;;5051494;28;20033;-75
2022/02/27 09:11:38;;;;;;;12.25;6.30;;;5.00;51.10;;;;;;5054368;28;20051;-78
2022/02/27 09:14:04;;;;;;;18.27;8.10;;;5.00;51.40;;;;;;5053744;28;20032;-78
2022/02/27 09:16:30;;;;;;;;;;;5.00;50.90;;;;;;5069865;28;20127;-75
2022/02/27 09:18:56;;;;;;;11.38;5.93;;;5.00;51.40;;;;;;5052650;28;20285;-75
2022/02/27 09:21:22;;;;;;;15.00;7.13;;;5.00;51.60;;;;;;5061829;28;20040;-75
2022/02/27 09:23:48;;;;;;;14.43;6.32;;;5.00;51.60;;;;;;5064606;28;20048;-78
2022/02/27 09:26:14;;;;;;;14.07;6.10;;;5.00;51.90;;;;;;5054067;28;20037;-75
2022/02/27 09:28:40;;;;;;;11.98;5.85;;;4.90;53.50;;;;;;5052390;28;20037;-75
2022/02/27 09:31:07;;;;;;;14.93;6.43;;;4.70;55.10;;;;;;5052931;28;20195;-75
2022/02/27 09:33:34;;;;;;;15.07;6.80;;;4.60;55.90;;;;;;5049249;28;20037;-78
2022/02/27 09:36:00;;;;;;;13.82;6.20;;;4.50;56.80;;;;;;5058691;28;20056;-75
2022/02/27 09:38:26;;;;;;;14.57;6.75;;;4.40;57.60;;;;;;5052535;28;20029;-79
2022/02/27 09:40:52;;;;;;;14.48;7.60;;;4.30;58.10;;;;;;5050453;28;20672;-75
2022/02/27 09:43:19;;;;;;;15.70;7.13;;;4.20;58.80;;;;;;5053621;28;20456;-79
2022/02/27 09:45:47;;;;;;;17.27;7.10;;;4.10;59.30;;;;;;5051650;28;20108;-79
2022/02/27 09:48:14;;;;;;;17.38;6.80;;;4.00;59.80;;;;;;5038494;28;20036;-79
2022/02/27 09:50:59;;;;;;;12.70;6.45;;;4.00;60.30;;;;;;5052259;28;20029;-75
2022/02/27 09:53:25;;;;;;;17.58;7.65;;;3.90;61.30;;;;;;5065138;28;20041;-75
2022/02/27 09:55:51;;;;;;;20.33;7.05;;;3.90;61.20;;;;;;5051513;28;20457;-75
2022/02/27 09:58:17;;;;;;;16.52;8.07;;;3.80;61.30;;;;;;5051494;28;20033;-79
2022/02/27 10:00:43;;;;;;;18.58;7.90;;;3.70;62.20;;;;;;5051601;28;20517;-75
2022/02/27 10:03:31;;;;;;;16.27;8.77;;;3.70;62.50;;;;;;5044089;28;20104;-79
2022/02/27 10:06:17;;;;;;;19.10;8.45;;;3.70;63.00;;;;;;5052244;28;20075;-75
2022/02/27 10:09:02;;;;;;;18.08;8.30;;;3.70;63.30;;;;;;5070070;28;20397;-79
2022/02/27 10:11:28;;;;;;;24.02;9.13;;;3.70;63.40;;;;;;5052575;28;20042;-79
2022/02/27 10:13:56;;;;;;;17.55;10.13;;;3.70;63.40;;;;;;5063549;28;20041;-79
2022/02/27 10:16:41;;;;;;;23.90;13.00;;;3.70;63.20;;;;;;5050061;28;20044;-75
2022/02/27 10:19:07;;;;;;;17.63;9.15;;;3.80;63.50;;;;;;5051398;28;20041;-74
2022/02/27 10:21:41;;;;;;;18.58;7.70;;;3.90;63.10;;;;;;5059636;28;20052;-79
2022/02/27 10:24:26;;;;;;;20.33;8.57;;;4.00;63.20;;;;;;5069054;28;20032;-74
2022/02/27 10:26:52;;;;;;;16.10;7.28;;;4.00;63.20;;;;;;5061721;28;20029;-80
2022/02/27 10:29:37;;;;;;;13.80;7.30;;;3.90;63.10;;;;;;5048192;28;20021;-74
2022/02/27 10:32:05;;;;;;;16.35;8.00;;;3.90;63.40;;;;;;5055404;28;20047;-74
2022/02/27 10:34:51;;;;;;;15.43;7.25;;;3.90;63.70;;;;;;5057545;28;20037;-74
2022/02/27 10:37:18;;;;;;;18.05;7.47;;;3.80;64.50;;;;;;5068656;28;20045;-79
2022/02/27 10:39:50;;;;;;;21.88;8.02;;;3.70;64.90;;;;;;5064062;28;20033;-74
2022/02/27 10:42:34;;;;;;;15.50;7.82;;;3.70;65.50;;;;;;5054314;28;20033;-75
2022/02/27 10:45:20;;;;;;;15.60;7.55;;;3.60;66.30;;;;;;5039004;28;20033;-80
2022/02/27 10:47:46;;;;;;;17.02;7.55;;;3.50;66.50;;;;;;5052382;28;20040;-78
2022/02/27 10:50:16;;;;;;;19.52;7.53;;;3.60;66.60;;;;;;5051315;28;20044;-78
2022/02/27 10:52:46;;;;;;;14.00;8.15;;;3.50;66.70;;;;;;5052332;28;20040;-75
2022/02/27 10:55:14;;;;;;;16.05;7.57;;;3.50;67.10;;;;;;5050799;28;20097;-78
2022/02/27 10:57:44;;;;;;;17.08;7.68;;;3.40;67.20;;;;;;5050911;28;20064;-79
2022/02/27 11:00:48;;;;;;;17.35;7.35;;;3.40;67.40;;;;;;5061758;28;20138;-79
2022/02/27 11:03:14;;;;;;;14.20;7.65;;;3.40;67.40;;;;;;5056945;28;20041;-79
2022/02/27 11:05:42;;;;;;;15.20;7.10;;;3.30;67.50;;;;;;5064605;28;20052;-79
2022/02/27 11:08:12;;;;;;;19.08;8.32;;;3.30;67.50;;;;;;5059973;28;20037;-75
2022/02/27 11:10:57;;;;;;;16.27;7.78;;;3.40;67.30;;;;;;5039678;28;20614;-75
2022/02/27 11:13:24;;;;;;;15.57;7.00;;;3.40;67.80;;;;;;5048477;28;20048;-80
2022/02/27 11:15:51;;;;;;;13.30;6.82;;;3.40;67.00;;;;;;5058388;28;20028;-79
2022/02/27 11:18:18;;;;;;;16.67;8.25;;;3.40;67.10;;;;;;5054579;28;20547;-75
2022/02/27 11:20:45;;;;;;;14.05;7.05;;;3.30;67.70;;;;;;5042608;28;20035;-78
2022/02/27 11:23:11;;;;;;;19.05;7.60;;;3.40;67.80;;;;;;5045368;28;20047;-75
2022/02/27 11:25:37;;;;;;;18.92;8.15;;;3.40;67.90;;;;;;5062866;28;20473;-75
2022/02/27 11:28:07;;;;;;;19.90;7.70;;;3.40;68.00;;;;;;5060514;28;20052;-75
2022/02/27 11:31:01;;;;;;;17.35;8.40;;;3.50;68.00;;;;;;5056335;28;20036;-75
2022/02/27 11:33:27;;;;;;;13.18;7.00;;;3.60;68.20;;;;;;5042154;28;20040;-74
2022/02/27 11:36:36;;;;;;;17.48;7.95;;;3.60;67.70;;;;;;5049552;28;20040;-77
2022/02/27 11:39:05;;;;;;;16.27;7.88;;;3.70;68.00;;;;;;5051392;28;20021;-75
2022/02/27 11:41:50;;;;;;;19.00;7.78;;;3.60;67.70;;;;;;5048826;28;20068;-78
2022/02/27 11:44:16;;;;;;;16.27;7.00;;;3.60;68.20;;;;;;5068411;28;20493;-77
2022/02/27 11:46:45;;;;;;;19.77;7.95;;;3.50;68.00;;;;;;5076706;28;20039;-78
2022/02/27 11:49:30;;;;;;;15.98;8.15;;;3.50;68.00;;;;;;5048178;28;20314;-74
2022/02/27 11:52:16;;;;;;;20.80;9.55;;;3.60;68.50;;;;;;5051816;28;20393;-76
2022/02/27 11:54:45;;;;;;;16.35;7.28;;;3.50;68.20;;;;;;5057818;28;20379;-76
2022/02/27 11:57:35;;;;;;;20.13;9.00;;;3.60;68.00;;;;;;5048419;28;20202;-74
2022/02/27 12:00:22;;;;;;;15.40;6.93;;;3.60;68.10;;;;;;5065423;28;20064;-77
2022/02/27 12:02:48;;;;;;;13.48;6.97;;;3.70;68.10;;;;;;5075317;28;20083;-77
2022/02/27 12:05:41;;;;;;;16.38;7.80;;;3.70;68.30;;;;;;5055755;28;20051;-77
2022/02/27 12:08:09;;;;;;;13.57;7.20;;;3.70;68.70;;;;;;5063319;28;20072;-74
2022/02/27 12:10:55;;;;;;;15.00;7.63;;;3.60;68.70;;;;;;5051075;28;20379;-78
2022/02/27 12:14:09;;;;;;;19.67;7.55;;;3.60;69.20;;;;;;5043425;28;20048;-77
2022/02/27 12:16:55;;;;;;;16.15;7.38;;;3.60;69.20;;;;;;5061443;28;20028;-78
2022/02/27 12:19:22;;;;;;;15.38;7.72;;;3.50;69.80;;;;;;5047670;28;20033;-77
2022/02/27 12:21:50;;;;;;;16.13;7.18;;;3.40;70.10;;;;;;5070295;28;20039;-74
2022/02/27 12:24:35;;;;;;;17.75;8.70;;;3.30;70.50;;;;;;5060812;28;20036;-74
2022/02/27 12:27:03;;;;;;;18.80;8.10;;;3.30;71.20;;;;;;5062718;28;20073;-75
2022/02/27 12:29:48;;;;;;;18.55;7.95;;;3.30;71.30;;;;;;5054925;28;20482;-77
2022/02/27 12:32:33;;;;;;;14.27;7.40;;;3.10;71.70;;;;;;5061050;28;20034;-78
2022/02/27 12:34:59;;;;;;;15.95;7.43;;;3.10;71.50;;;;;;5055680;28;20044;-75
2022/02/27 12:37:26;;;;;;;17.23;7.70;;;3.10;72.20;;;;;;5053813;28;20619;-76
2022/02/27 12:39:53;;;;;;;;;;;3.20;72.40;;;;;;5063793;28;20060;-79
2022/02/27 12:42:23;;;;;;;17.15;7.85;;;3.30;72.20;;;;;;5053904;28;19924;-79
2022/02/27 12:44:53;;;;;;;14.10;7.25;;;3.20;72.20;;;;;;5049529;28;20040;-79
2022/02/27 12:47:22;;;;;;;16.42;7.13;;;3.30;72.70;;;;;;5057832;28;20024;-79
2022/02/27 12:52:57;;;;;;;15.77;6.68;;;3.30;72.80;;;;;;5057743;28;20043;-77
2022/02/27 12:55:23;;;;;;;14.30;6.70;;;3.30;72.70;;;;;;5058685;28;20040;-79
2022/02/27 12:57:51;;;;;;;;;;;3.30;72.70;;;;;;5084619;28;20083;-80
2022/02/27 13:00:23;;;;;;;13.50;6.57;;;3.40;72.10;;;;;;5066901;28;19967;-79
2022/02/27 13:02:51;;;;;;;12.75;6.85;;;3.40;72.20;;;;;;5042334;28;20568;-81
2022/02/27 13:05:17;;;;;;;13.68;7.15;;;3.50;72.50;;;;;;5070638;28;20135;-80